CDT,Max TemperatureF,Mean TemperatureF,Min TemperatureF,Max Dew PointF,MeanDew PointF,Min DewpointF,Max Humidity, Mean Humidity, Min Humidity, Max Sea Level PressureIn, Mean Sea Level PressureIn, Min Sea Level PressureIn, Max VisibilityMiles, Mean VisibilityMiles, Min VisibilityMiles, Max Wind SpeedMPH, Mean Wind SpeedMPH, Max Gust SpeedMPH,PrecipitationIn, CloudCover, Events, WindDirDegrees
2014-4-1,53,38,25,25,20,17,75,50,32,30.15,30.06,30.00,10,10,7,21,11,28,0.00,3,,338
2014-4-2,45,42,39,45,39,25,100,86,53,30.03,29.84,29.71,10,4,1,18,10,26,0.01,7,Rain,64
2014-4-3,46,42,35,45,43,34,100,97,89,29.79,29.67,29.61,10,4,0,22,11,29,0.19,8,Fog-Rain-Snow-Thunderstorm,4
2014-4-4,46,40,30,36,30,26,100,70,49,30.19,30.04,29.82,10,10,10,25,17,41,0.00,6,,320
2014-4-5,61,44,27,34,29,24,92,61,29,30.20,30.11,30.01,10,10,10,17,7,25,0.00,0,,148
2014-4-6,62,52,44,38,35,31,68,53,39,30.02,29.93,29.85,10,10,10,10,5,,0.00,7,,147
2014-4-7,66,55,46,43,36,28,77,55,30,29.91,29.81,29.75,10,10,10,13,5,22,0.00,7,,331
2014-4-8,60,50,39,36,29,20,76,50,24,30.10,30.02,29.91,10,10,10,22,11,29,0.01,1,,324
2014-4-9,81,54,28,39,29,21,78,40,18,30.09,29.90,29.66,10,10,6,26,9,37,0.00,0,,183
2014-4-10,68,60,46,41,29,18,44,32,16,30.01,29.84,29.61,10,10,10,25,11,38,0.00,0,,8
2014-4-11,77,58,39,36,30,23,68,38,18,30.05,29.97,29.85,10,10,8,15,6,,0.00,1,,161
2014-4-12,84,68,53,64,53,37,87,56,39,29.83,29.59,29.47,10,9,2,30,13,45,0.29,2,Rain-Thunderstorm,179
2014-4-13,64,48,33,57,47,33,100,90,67,29.86,29.60,29.50,10,6,2,28,14,39,0.83,7,Rain-Snow-Thunderstorm,349
2014-4-14,44,36,30,25,22,20,72,56,41,30.20,30.07,29.85,10,9,2,25,19,39,0.01,6,Snow,338
2014-4-15,55,40,26,32,26,20,88,59,35,30.25,30.12,29.92,10,10,8,20,7,29,0.00,0,,199
2014-4-16,71,50,39,34,30,28,70,50,27,30.09,29.89,29.79,10,10,9,29,19,44,0.00,0,,188
2014-4-17,55,45,35,30,28,27,76,58,35,30.35,30.27,30.13,10,10,9,17,10,23,0.00,3,,347
2014-4-18,69,44,28,41,33,27,92,73,44,30.32,30.26,30.12,10,7,2,13,4,,0.00,0,,136
2014-4-19,80,62,48,46,43,41,74,59,31,30.14,30.07,29.99,10,10,10,22,12,30,0.00,0,,160
2014-4-20,84,70,59,59,51,45,81,54,37,30.03,29.99,29.92,10,10,10,20,12,28,0.01,1,Rain,191
2014-4-21,75,65,54,58,48,28,90,59,20,30.09,29.97,29.92,10,10,3,23,9,31,0.04,3,Rain,307
2014-4-22,71,57,44,36,33,30,63,42,24,30.16,30.07,29.96,10,10,10,14,6,21,0.00,1,,69
2014-4-23,71,61,51,46,42,36,77,54,39,29.97,29.80,29.59,10,10,10,30,13,37,0.09,4,Rain,130
2014-4-24,69,60,50,55,51,44,100,82,45,29.83,29.68,29.54,10,8,2,18,10,26,0.47,5,Rain-Thunderstorm,293
2014-4-25,66,54,41,47,43,39,96,75,47,29.88,29.83,29.75,10,10,9,12,3,,0.00,0,,184
2014-4-26,81,64,51,57,50,43,77,60,46,29.75,29.59,29.49,10,10,10,28,11,45,0.00,1,Rain,137
2014-4-27,69,63,57,63,59,52,100,83,60,29.48,29.38,29.26,10,9,2,23,14,32,0.39,4,Rain-Thunderstorm,127
2014-4-28,63,56,48,61,48,42,96,78,64,29.38,29.30,29.23,10,10,5,17,12,26,0.00,7,,210
2014-4-29,50,46,42,48,43,37,100,88,71,29.88,29.55,29.37,10,9,3,22,9,32,0.01,8,Rain,321
2014-4-30,53,45,39,39,36,34,89,74,52,29.98,29.93,29.87,10,10,7,28,13,37,0.03,6,Rain,304